Time;durP1;ratioP1;P1;durP2;ratioP2;P2;SDS_P1;SDS_P2;PMS_P1;PMS_P2;Temp;Humidity;BMP_temperature;BMP_pressure;BME280_temperature;BME280_humidity;BME280_pressure;Samples;Min_cycle;Max_cycle;Signal;HPM_P1;HPM_P2
2022/03/31 00:00:47;;;;;;;17.88;15.25;;;9.90;81.80;;;;;;5070956;28;20108;-60
2022/03/31 00:03:15;;;;;;;17.60;14.35;;;10.00;81.70;;;;;;5078355;28;20031;-60
2022/03/31 00:05:41;;;;;;;17.95;15.38;;;10.00;81.70;;;;;;5087170;28;20078;-60
2022/03/31 00:08:09;;;;;;;19.75;15.82;;;10.00;81.70;;;;;;5078458;28;20500;-60
2022/03/31 00:10:40;;;;;;;19.83;15.02;;;10.10;81.60;;;;;;5083494;28;20040;-60
2022/03/31 00:13:09;;;;;;;18.98;14.68;;;10.10;81.40;;;;;;5068712;28;20411;-60
2022/03/31 00:15:35;;;;;;;16.92;14.52;;;10.10;81.40;;;;;;5066249;28;20480;-59
2022/03/31 00:18:02;;;;;;;18.55;14.43;;;10.10;81.30;;;;;;5080692;28;20049;-60
2022/03/31 00:20:28;;;;;;;19.10;15.57;;;10.20;81.30;;;;;;5069080;28;20049;-60
2022/03/31 00:22:55;;;;;;;15.82;14.00;;;10.20;81.20;;;;;;5087083;28;20056;-60
2022/03/31 00:25:22;;;;;;;19.42;15.60;;;10.20;81.10;;;;;;5068383;28;20050;-60
2022/03/31 00:27:48;;;;;;;17.65;15.50;;;10.20;81.00;;;;;;5066914;28;20043;-60
2022/03/31 00:30:14;;;;;;;17.02;14.68;;;10.20;81.20;;;;;;5067812;28;20079;-60
2022/03/31 00:32:41;;;;;;;18.52;14.93;;;10.20;81.30;;;;;;5064256;28;20052;-60
2022/03/31 00:35:09;;;;;;;16.58;14.80;;;10.20;81.30;;;;;;5061883;28;20032;-60
2022/03/31 00:37:34;;;;;;;17.25;14.52;;;10.20;81.30;;;;;;5067306;28;20036;-60
2022/03/31 00:40:00;;;;;;;18.98;15.45;;;10.20;81.20;;;;;;5078852;28;20024;-59
2022/03/31 00:42:26;;;;;;;15.98;14.18;;;10.20;81.20;;;;;;5088867;28;20035;-60
2022/03/31 00:44:52;;;;;;;17.52;14.73;;;10.20;81.10;;;;;;5065134;28;20020;-59
2022/03/31 00:47:19;;;;;;;16.90;14.73;;;10.20;81.00;;;;;;5067735;28;20028;-60
2022/03/31 00:49:45;;;;;;;16.33;14.48;;;10.20;80.80;;;;;;5082016;28;20143;-59
2022/03/31 00:52:11;;;;;;;19.10;14.52;;;10.20;80.90;;;;;;5075099;28;20017;-60
2022/03/31 00:54:39;;;;;;;16.00;13.23;;;10.10;81.00;;;;;;5067902;28;20090;-60
2022/03/31 00:57:10;;;;;;;17.88;15.25;;;10.00;81.30;;;;;;5079075;28;20038;-60
2022/03/31 00:59:36;;;;;;;15.43;13.73;;;10.00;81.50;;;;;;5064196;28;20028;-60
2022/03/31 01:02:03;;;;;;;15.40;13.43;;;9.90;81.80;;;;;;5065266;28;20024;-60
2022/03/31 01:04:29;;;;;;;16.50;14.15;;;9.80;82.00;;;;;;5066635;28;20480;-60
2022/03/31 01:06:56;;;;;;;16.25;14.00;;;9.80;82.30;;;;;;5085022;28;20079;-60
2022/03/31 01:09:22;;;;;;;17.52;13.82;;;9.70;82.70;;;;;;5070789;28;20106;-60
2022/03/31 01:11:47;;;;;;;15.45;13.40;;;9.60;83.00;;;;;;5092859;28;20078;-60
2022/03/31 01:14:14;;;;;;;18.75;15.15;;;9.60;83.40;;;;;;5076043;28;20110;-60
2022/03/31 01:16:40;;;;;;;17.05;14.70;;;9.50;83.90;;;;;;5065158;28;20388;-60
2022/03/31 01:19:08;;;;;;;18.38;14.60;;;9.50;84.30;;;;;;5060924;28;20107;-59
2022/03/31 01:21:43;;;;;;;17.67;15.27;;;9.50;84.60;;;;;;5059709;28;20029;-60
2022/03/31 01:24:10;;;;;;;16.25;13.70;;;9.50;84.50;;;;;;5075611;28;20397;-60
2022/03/31 01:26:40;;;;;;;16.90;14.32;;;9.50;84.20;;;;;;5081178;28;20036;-60
2022/03/31 01:29:10;;;;;;;16.42;14.68;;;9.50;84.20;;;;;;5089668;28;20039;-60
2022/03/31 01:31:38;;;;;;;14.95;13.32;;;9.50;84.50;;;;;;5068930;28;20031;-60
2022/03/31 01:34:08;;;;;;;14.75;12.98;;;9.50;84.50;;;;;;5092735;28;20035;-60
2022/03/31 01:36:35;;;;;;;17.95;14.65;;;9.50;84.30;;;;;;5085737;28;20059;-60
2022/03/31 01:39:01;;;;;;;17.80;14.18;;;9.40;84.00;;;;;;5073245;28;20066;-60
2022/03/31 01:41:27;;;;;;;15.27;13.48;;;9.50;84.10;;;;;;5092519;28;20407;-60
2022/03/31 01:43:52;;;;;;;16.10;14.30;;;9.50;84.00;;;;;;5072367;28;20441;-60
2022/03/31 01:46:18;;;;;;;21.77;14.73;;;9.50;83.80;;;;;;5092263;28;20028;-60
2022/03/31 01:48:44;;;;;;;16.33;14.52;;;9.50;84.10;;;;;;5076548;28;20025;-59
2022/03/31 01:51:09;;;;;;;20.85;15.10;;;9.50;84.20;;;;;;5065636;28;20104;-60
2022/03/31 01:53:37;;;;;;;18.55;13.63;;;9.60;84.30;;;;;;5087445;28;20075;-60
2022/03/31 01:56:03;;;;;;;14.27;12.60;;;9.70;83.90;;;;;;5056426;28;20037;-60
2022/03/31 01:58:30;;;;;;;16.77;12.63;;;9.70;83.20;;;;;;5078871;28;20055;-60
2022/03/31 02:00:57;;;;;;;15.50;13.70;;;9.70;83.10;;;;;;5056375;28;20028;-60
2022/03/31 02:03:23;;;;;;;16.92;15.07;;;9.60;83.20;;;;;;5078555;28;20098;-60
2022/03/31 02:05:50;;;;;;;13.88;11.90;;;9.60;83.50;;;;;;5091067;28;20038;-60
2022/03/31 02:08:17;;;;;;;16.63;13.77;;;9.60;83.70;;;;;;5077341;28;20032;-60
2022/03/31 02:10:43;;;;;;;14.98;13.32;;;9.70;83.40;;;;;;5062214;28;20021;-60
2022/03/31 02:13:08;;;;;;;16.45;14.40;;;9.60;83.30;;;;;;5077863;28;20037;-60
2022/03/31 02:15:35;;;;;;;16.70;14.52;;;9.60;83.20;;;;;;5073552;28;20396;-60
2022/03/31 02:18:02;;;;;;;14.75;13.18;;;9.60;83.40;;;;;;5082417;28;20023;-60
2022/03/31 02:20:30;;;;;;;15.23;13.07;;;9.70;83.40;;;;;;5065424;28;20033;-60
2022/03/31 02:22:58;;;;;;;18.63;14.57;;;9.60;83.50;;;;;;5080596;28;20108;-60
2022/03/31 02:25:24;;;;;;;15.05;13.30;;;9.60;83.50;;;;;;5070045;28;20028;-60
2022/03/31 02:27:52;;;;;;;14.75;12.50;;;9.50;83.70;;;;;;5077783;28;20054;-60
2022/03/31 02:30:19;;;;;;;17.92;14.35;;;9.50;83.80;;;;;;5073605;28;20052;-60
2022/03/31 02:32:44;;;;;;;16.50;14.57;;;9.40;83.80;;;;;;5065033;28;20021;-60
2022/03/31 02:35:11;;;;;;;16.35;14.70;;;9.50;84.00;;;;;;5077147;28;20382;-60
2022/03/31 02:37:37;;;;;;;16.80;14.77;;;9.50;84.20;;;;;;5070174;28;20067;-60
2022/03/31 02:40:06;;;;;;;15.50;12.93;;;9.50;84.30;;;;;;5086467;28;20089;-60
2022/03/31 02:42:35;;;;;;;15.43;13.63;;;9.60;84.20;;;;;;5076990;28;20542;-60
2022/03/31 02:45:04;;;;;;;17.13;13.60;;;9.70;84.00;;;;;;5076683;28;20028;-60
2022/03/31 02:47:29;;;;;;;17.08;14.80;;;9.70;83.80;;;;;;5069169;28;20095;-60
2022/03/31 02:49:57;;;;;;;17.05;13.50;;;9.70;83.50;;;;;;5074913;28;20024;-60
2022/03/31 02:52:23;;;;;;;15.10;13.50;;;9.70;83.40;;;;;;5057298;28;20497;-60
2022/03/31 02:57:33;;;;;;;15.82;14.15;;;9.70;83.00;;;;;;5084848;28;20407;-60
2022/03/31 02:59:59;;;;;;;15.90;13.63;;;9.60;83.20;;;;;;5070781;28;20020;-60
2022/03/31 03:02:25;;;;;;;16.83;14.63;;;9.60;83.50;;;;;;5058581;28;20053;-60
2022/03/31 03:04:50;;;;;;;16.67;14.07;;;9.60;83.70;;;;;;5068530;28;20469;-60
2022/03/31 03:07:16;;;;;;;15.13;13.52;;;9.60;83.80;;;;;;5075381;28;20036;-60
2022/03/31 03:09:42;;;;;;;17.00;13.43;;;9.60;83.90;;;;;;5063767;28;20033;-60
2022/03/31 03:12:09;;;;;;;14.95;12.70;;;9.60;83.90;;;;;;5061091;28;20025;-60
2022/03/31 03:14:34;;;;;;;14.00;12.55;;;9.50;83.90;;;;;;5066514;28;20029;-60
2022/03/31 03:17:00;;;;;;;17.35;14.23;;;9.50;84.00;;;;;;5073859;28;20162;-60
2022/03/31 03:19:26;;;;;;;16.23;12.80;;;9.40;84.20;;;;;;5074455;28;20578;-60
2022/03/31 03:21:51;;;;;;;16.27;13.32;;;9.40;84.50;;;;;;5077414;28;20627;-60
2022/03/31 03:24:18;;;;;;;14.50;12.70;;;9.30;84.60;;;;;;5079495;28;20035;-60
2022/03/31 03:26:43;;;;;;;15.88;14.18;;;9.30;84.80;;;;;;5078117;28;20159;-60
2022/03/31 03:29:09;;;;;;;15.60;13.00;;;9.20;85.10;;;;;;5077557;28;20099;-60
2022/03/31 03:31:35;;;;;;;14.35;12.68;;;9.20;85.40;;;;;;5082656;28;20029;-60
2022/03/31 03:34:00;;;;;;;15.57;12.55;;;9.20;85.40;;;;;;5070474;28;20082;-60
2022/03/31 03:36:27;;;;;;;15.65;13.95;;;9.20;85.60;;;;;;5069353;28;20624;-60
2022/03/31 03:38:53;;;;;;;16.42;14.40;;;9.20;85.60;;;;;;5064928;28;20179;-60
2022/03/31 03:41:18;;;;;;;17.52;15.45;;;9.20;85.70;;;;;;5094611;28;20422;-60
2022/03/31 03:43:44;;;;;;;18.05;15.30;;;9.30;85.90;;;;;;5079825;28;20553;-60
2022/03/31 03:46:10;;;;;;;18.20;14.15;;;9.40;85.80;;;;;;5086901;28;20035;-60
2022/03/31 03:48:36;;;;;;;16.90;14.13;;;9.40;85.70;;;;;;5071334;28;20028;-60
2022/03/31 03:51:03;;;;;;;15.50;13.85;;;9.50;85.50;;;;;;5063805;28;20040;-60
2022/03/31 03:53:29;;;;;;;15.23;13.38;;;9.60;85.20;;;;;;5090404;28;20028;-60
2022/03/31 03:55:54;;;;;;;15.25;13.43;;;9.70;84.90;;;;;;5068809;28;20047;-60
2022/03/31 03:58:20;;;;;;;17.77;13.45;;;9.70;84.60;;;;;;5083769;28;20077;-60
2022/03/31 04:00:46;;;;;;;15.32;12.60;;;9.70;84.20;;;;;;5069260;28;20442;-60
2022/03/31 04:03:12;;;;;;;14.45;12.88;;;9.70;83.90;;;;;;5089645;28;20027;-60
2022/03/31 04:05:38;;;;;;;15.30;13.13;;;9.70;83.50;;;;;;5076690;28;20024;-60
2022/03/31 04:08:04;;;;;;;15.30;13.02;;;9.70;83.70;;;;;;5087749;28;20083;-60
2022/03/31 04:10:32;;;;;;;15.65;13.23;;;9.70;84.00;;;;;;5062156;28;20082;-60
2022/03/31 04:12:58;;;;;;;17.08;13.50;;;9.70;84.10;;;;;;5075505;28;20031;-60
2022/03/31 04:15:23;;;;;;;15.80;14.05;;;9.80;83.90;;;;;;5072446;28;20028;-60
2022/03/31 04:17:49;;;;;;;14.25;12.77;;;9.80;83.90;;;;;;5063732;28;20035;-60
2022/03/31 04:20:15;;;;;;;15.35;12.40;;;9.90;83.90;;;;;;5064815;28;20108;-60
2022/03/31 04:22:41;;;;;;;13.95;12.45;;;9.90;83.40;;;;;;5075316;28;20357;-60
2022/03/31 04:25:09;;;;;;;14.98;12.88;;;9.80;83.30;;;;;;5086100;28;20032;-60
2022/03/31 04:27:37;;;;;;;14.27;12.32;;;9.60;83.50;;;;;;5076754;28;20487;-60
2022/03/31 04:30:08;;;;;;;15.13;13.48;;;9.50;84.20;;;;;;5075626;28;20030;-61
2022/03/31 04:32:33;;;;;;;14.15;12.65;;;9.30;84.70;;;;;;5083116;28;20027;-60
2022/03/31 04:34:59;;;;;;;16.13;13.02;;;9.20;85.50;;;;;;5085117;28;20107;-60
2022/03/31 04:37:25;;;;;;;15.55;13.32;;;9.10;86.70;;;;;;5090209;28;20028;-60
2022/03/31 04:39:51;;;;;;;14.95;12.15;;;9.00;86.50;;;;;;5078920;28;20028;-60
2022/03/31 04:42:16;;;;;;;14.02;12.55;;;9.00;86.90;;;;;;5084981;28;20020;-60
2022/03/31 04:44:42;;;;;;;15.93;13.63;;;9.00;87.10;;;;;;5074345;28;20442;-60
2022/03/31 04:47:11;;;;;;;15.10;13.00;;;8.90;87.20;;;;;;5068511;28;20370;-60
2022/03/31 04:49:37;;;;;;;16.45;14.10;;;8.90;87.40;;;;;;5072696;28;20485;-60
2022/03/31 04:52:04;;;;;;;15.68;12.82;;;8.90;87.70;;;;;;5075386;28;20039;-60
2022/03/31 04:54:30;;;;;;;16.90;14.70;;;9.00;87.90;;;;;;5082162;28;20025;-60
2022/03/31 04:56:55;;;;;;;16.33;13.90;;;9.00;88.00;;;;;;5060907;28;20124;-60
2022/03/31 04:59:21;;;;;;;17.27;14.40;;;9.10;88.00;;;;;;5057308;28;20028;-62
2022/03/31 05:01:48;;;;;;;14.35;12.95;;;9.20;87.60;;;;;;5060462;28;20059;-62
2022/03/31 05:04:14;;;;;;;17.02;14.57;;;9.30;87.40;;;;;;5067220;28;20131;-62
2022/03/31 05:06:40;;;;;;;14.82;13.10;;;9.40;87.30;;;;;;5078881;28;20109;-62
2022/03/31 05:09:06;;;;;;;14.73;12.35;;;9.40;86.90;;;;;;5066376;28;20033;-62
2022/03/31 05:11:31;;;;;;;14.77;13.25;;;9.50;86.50;;;;;;5074165;28;20507;-62
2022/03/31 05:13:57;;;;;;;13.52;12.07;;;9.50;86.30;;;;;;5076766;28;20021;-62
2022/03/31 05:16:23;;;;;;;14.52;13.00;;;9.40;86.30;;;;;;5067876;28;20542;-62
2022/03/31 05:18:48;;;;;;;15.43;13.80;;;9.40;86.70;;;;;;5057466;28;20092;-62
2022/03/31 05:21:17;;;;;;;17.75;15.38;;;9.40;87.20;;;;;;5058761;28;20029;-61
2022/03/31 05:23:43;;;;;;;19.70;16.85;;;9.30;87.60;;;;;;5063249;28;20044;-61
2022/03/31 05:26:08;;;;;;;18.55;16.55;;;9.30;88.10;;;;;;5064590;28;20382;-61
2022/03/31 05:28:34;;;;;;;19.95;17.85;;;9.30;88.50;;;;;;5064626;28;20032;-60
2022/03/31 05:31:00;;;;;;;21.98;18.02;;;9.20;88.90;;;;;;5073235;28;20514;-61
2022/03/31 05:33:25;;;;;;;21.58;17.60;;;9.20;89.30;;;;;;5065698;28;20041;-61
2022/03/31 05:35:52;;;;;;;21.25;18.77;;;9.10;89.70;;;;;;5057413;28;20028;-60
2022/03/31 05:38:18;;;;;;;21.27;18.90;;;9.10;89.90;;;;;;5064614;28;20032;-61
2022/03/31 05:40:43;;;;;;;19.38;17.48;;;9.10;90.00;;;;;;5063965;28;20504;-61
2022/03/31 05:43:09;;;;;;;20.23;18.02;;;9.10;90.10;;;;;;5064765;28;20100;-61
2022/03/31 05:45:35;;;;;;;20.83;18.63;;;9.20;90.20;;;;;;5066734;28;20028;-61
2022/03/31 05:48:01;;;;;;;21.85;19.50;;;9.30;90.30;;;;;;5062388;28;20028;-60
2022/03/31 05:50:27;;;;;;;21.67;17.45;;;9.50;90.20;;;;;;5055985;28;20111;-61
2022/03/31 05:52:53;;;;;;;19.63;16.38;;;9.60;89.60;;;;;;5063735;28;20048;-61
2022/03/31 05:55:20;;;;;;;21.85;18.60;;;9.80;88.80;;;;;;5057156;28;20064;-60
2022/03/31 05:57:46;;;;;;;20.42;17.67;;;9.90;88.40;;;;;;5064481;28;20501;-61
2022/03/31 06:00:18;;;;;;;18.77;16.77;;;10.00;87.70;;;;;;5056965;28;20077;-62
2022/03/31 06:02:46;;;;;;;20.15;17.85;;;10.10;87.20;;;;;;5055264;28;20024;-63
2022/03/31 06:05:13;;;;;;;19.15;17.20;;;10.20;86.80;;;;;;5051027;28;20412;-62
2022/03/31 06:07:39;;;;;;;22.55;17.65;;;10.20;86.40;;;;;;5051796;28;20027;-61
2022/03/31 06:10:07;;;;;;;21.98;18.13;;;10.40;86.30;;;;;;5055584;28;20493;-62
2022/03/31 06:12:34;;;;;;;22.40;19.05;;;10.50;85.90;;;;;;5054336;28;20373;-61
2022/03/31 06:15:01;;;;;;;21.23;18.48;;;10.60;85.30;;;;;;5045551;28;20481;-62
2022/03/31 06:17:27;;;;;;;19.60;17.50;;;10.70;84.60;;;;;;5053583;28;20021;-62
2022/03/31 06:19:53;;;;;;;20.42;17.85;;;10.80;84.00;;;;;;5059876;28;20143;-62
2022/03/31 06:22:19;;;;;;;20.48;18.38;;;10.90;83.40;;;;;;5055231;28;20032;-61
2022/03/31 06:24:45;;;;;;;19.02;17.02;;;11.00;82.90;;;;;;5067046;28;20524;-60
2022/03/31 06:27:11;;;;;;;20.02;17.80;;;11.00;82.40;;;;;;5050410;28;20025;-63
2022/03/31 06:29:38;;;;;;;21.75;18.08;;;11.10;82.40;;;;;;5050705;28;20037;-62
2022/03/31 06:32:06;;;;;;;20.40;18.15;;;11.10;82.10;;;;;;5053777;28;20032;-61
2022/03/31 06:34:32;;;;;;;20.08;17.98;;;11.10;81.90;;;;;;5054029;28;20036;-63
2022/03/31 06:36:58;;;;;;;20.02;17.83;;;11.20;81.70;;;;;;5059231;28;20054;-62
2022/03/31 06:39:25;;;;;;;20.42;17.02;;;11.30;81.60;;;;;;5063440;28;20174;-62
2022/03/31 06:41:51;;;;;;;19.00;15.93;;;11.40;81.20;;;;;;5058959;28;20538;-62
2022/03/31 06:44:19;;;;;;;20.20;18.10;;;11.50;80.60;;;;;;5060450;28;20507;-61
2022/03/31 06:46:46;;;;;;;18.40;16.48;;;11.40;79.70;;;;;;5060075;28;20115;-62
2022/03/31 06:49:12;;;;;;;20.17;17.65;;;11.30;79.50;;;;;;5053995;28;20037;-61
2022/03/31 06:51:38;;;;;;;21.92;19.02;;;11.20;79.40;;;;;;5061048;28;20035;-61
2022/03/31 06:54:06;;;;;;;22.67;19.13;;;11.20;79.80;;;;;;5061109;28;20048;-61
2022/03/31 06:56:32;;;;;;;20.17;17.98;;;11.20;80.00;;;;;;5057086;28;20031;-60
2022/03/31 06:58:59;;;;;;;22.00;18.60;;;11.20;80.00;;;;;;5062086;28;20504;-61
2022/03/31 07:01:26;;;;;;;25.95;19.45;;;11.10;79.90;;;;;;5059575;28;20029;-62
2022/03/31 07:03:53;;;;;;;20.52;18.08;;;11.20;80.20;;;;;;5055502;28;20098;-62
2022/03/31 07:06:20;;;;;;;17.88;15.98;;;11.20;80.30;;;;;;5051697;28;20452;-63
2022/03/31 07:08:47;;;;;;;21.15;18.65;;;11.30;80.00;;;;;;5057968;28;20043;-62
2022/03/31 07:11:13;;;;;;;20.52;18.35;;;11.40;79.60;;;;;;5058426;28;20032;-61
2022/03/31 07:13:43;;;;;;;21.52;18.35;;;11.40;79.50;;;;;;5057615;28;20040;-62
2022/03/31 07:16:09;;;;;;;22.70;19.55;;;11.50;79.50;;;;;;5063812;28;20025;-62
2022/03/31 07:18:37;;;;;;;20.67;18.45;;;11.60;79.60;;;;;;5052606;28;20033;-61
2022/03/31 07:21:03;;;;;;;21.17;19.02;;;11.70;79.30;;;;;;5053469;28;20029;-61
2022/03/31 07:23:29;;;;;;;24.75;19.25;;;11.80;78.90;;;;;;5060528;28;20048;-62
2022/03/31 07:25:59;;;;;;;23.35;19.10;;;11.90;78.70;;;;;;5056254;28;20036;-61
2022/03/31 07:28:26;;;;;;;23.67;19.88;;;12.10;78.40;;;;;;5052494;28;20028;-61
2022/03/31 07:30:53;;;;;;;23.33;18.42;;;12.20;77.90;;;;;;5056503;28;20048;-59
2022/03/31 07:33:21;;;;;;;21.65;18.58;;;12.40;77.40;;;;;;5056262;28;20037;-60
2022/03/31 07:35:48;;;;;;;22.98;19.33;;;12.50;76.90;;;;;;5042762;28;20044;-60
2022/03/31 07:38:16;;;;;;;21.13;18.33;;;12.70;76.50;;;;;;5048395;28;20036;-61
2022/03/31 07:40:45;;;;;;;21.52;19.35;;;12.80;75.70;;;;;;5044503;28;21118;-60
2022/03/31 07:43:12;;;;;;;21.00;17.70;;;12.90;75.20;;;;;;5051458;28;20104;-60
2022/03/31 07:45:39;;;;;;;23.17;20.38;;;13.00;74.70;;;;;;5048791;28;20044;-61
2022/03/31 07:48:08;;;;;;;21.02;18.63;;;13.00;74.20;;;;;;5052943;28;20029;-62
2022/03/31 07:50:35;;;;;;;20.98;18.50;;;13.10;74.00;;;;;;5050975;28;20353;-62
2022/03/31 07:53:01;;;;;;;21.60;18.60;;;13.10;73.70;;;;;;5072714;28;20067;-63
2022/03/31 07:55:28;;;;;;;21.92;19.27;;;13.20;73.40;;;;;;5052736;28;20033;-63
2022/03/31 07:57:54;;;;;;;24.40;20.30;;;13.20;72.90;;;;;;5043647;28;20555;-62
2022/03/31 08:00:21;;;;;;;26.23;19.95;;;13.20;72.80;;;;;;5044418;28;20112;-62
2022/03/31 08:02:50;;;;;;;25.45;19.65;;;13.30;72.90;;;;;;5056093;28;20128;-63
2022/03/31 08:05:21;;;;;;;21.05;18.67;;;13.40;72.50;;;;;;5049689;28;20637;-61
2022/03/31 08:07:49;;;;;;;21.27;18.80;;;13.40;72.00;;;;;;5050168;28;20032;-62
2022/03/31 08:10:17;;;;;;;22.15;18.95;;;13.40;71.80;;;;;;5047291;28;20029;-61
2022/03/31 08:12:45;;;;;;;19.92;17.70;;;13.50;71.80;;;;;;5050126;28;20640;-60
2022/03/31 08:15:12;;;;;;;24.30;19.23;;;13.50;71.40;;;;;;5053438;28;20032;-61
2022/03/31 08:17:39;;;;;;;23.73;18.58;;;13.40;71.30;;;;;;5060632;28;20146;-60
2022/03/31 08:20:07;;;;;;;24.42;19.30;;;13.40;71.30;;;;;;5050941;28;20040;-62
2022/03/31 08:22:33;;;;;;;22.65;18.23;;;13.40;71.40;;;;;;5055910;28;20056;-61
2022/03/31 08:25:03;;;;;;;23.05;18.92;;;13.30;71.30;;;;;;5047750;28;20051;-61
2022/03/31 08:27:30;;;;;;;22.58;18.38;;;13.30;71.40;;;;;;5045810;28;20024;-62
2022/03/31 08:29:59;;;;;;;21.48;18.00;;;13.30;71.50;;;;;;5047346;28;20067;-61
2022/03/31 08:32:25;;;;;;;21.00;17.40;;;13.30;71.50;;;;;;5052287;28;20063;-60
2022/03/31 08:34:51;;;;;;;22.60;18.20;;;13.40;71.60;;;;;;5040713;28;20516;-62
2022/03/31 08:37:18;;;;;;;18.67;16.67;;;13.50;71.30;;;;;;5048541;28;20038;-60
2022/03/31 08:39:44;;;;;;;24.20;17.80;;;13.60;71.00;;;;;;5051422;28;20048;-61
2022/03/31 08:42:11;;;;;;;24.77;18.00;;;13.80;70.30;;;;;;5054859;28;20715;-62
2022/03/31 08:44:39;;;;;;;19.52;16.80;;;13.90;70.10;;;;;;5042843;28;20037;-61
2022/03/31 08:47:07;;;;;;;22.60;16.48;;;14.20;69.80;;;;;;5054190;28;20033;-61
2022/03/31 08:49:34;;;;;;;20.52;17.58;;;14.40;69.50;;;;;;5044316;28;21535;-63
2022/03/31 08:52:00;;;;;;;22.90;16.13;;;14.60;69.00;;;;;;5045370;28;20028;-62
2022/03/31 08:54:26;;;;;;;19.50;16.45;;;14.80;68.60;;;;;;5053580;28;20029;-62
2022/03/31 08:56:54;;;;;;;23.65;16.77;;;14.90;68.20;;;;;;5058137;28;20025;-62
2022/03/31 08:59:20;;;;;;;21.98;16.13;;;15.10;67.70;;;;;;5045943;28;20166;-63
2022/03/31 09:01:47;;;;;;;19.75;15.85;;;15.20;67.40;;;;;;5039340;28;20698;-61
2022/03/31 09:04:23;;;;;;;21.13;16.88;;;15.40;66.70;;;;;;5046648;28;20028;-63
2022/03/31 09:07:08;;;;;;;21.25;16.75;;;15.50;66.20;;;;;;5052452;28;20027;-61
2022/03/31 09:09:47;;;;;;;21.88;17.02;;;15.50;65.60;;;;;;5058830;28;20427;-62
2022/03/31 09:12:14;;;;;;;24.80;16.98;;;15.60;65.60;;;;;;5048952;28;20028;-61
2022/03/31 09:14:40;;;;;;;19.70;17.60;;;15.60;65.20;;;;;;5054256;28;20417;-62
2022/03/31 09:17:16;;;;;;;20.75;16.92;;;15.70;64.90;;;;;;5053074;28;20083;-62
2022/03/31 09:19:43;;;;;;;23.52;17.10;;;15.70;64.50;;;;;;5050934;28;20025;-62
2022/03/31 09:22:10;;;;;;;22.05;17.17;;;15.80;64.30;;;;;;5046156;28;20079;-62
2022/03/31 09:24:37;;;;;;;24.52;17.13;;;15.80;64.20;;;;;;5043325;28;20036;-62
2022/03/31 09:27:04;;;;;;;21.67;16.95;;;15.80;63.60;;;;;;5078712;27;20033;-62
2022/03/31 09:29:32;;;;;;;25.35;17.98;;;15.90;63.40;;;;;;5051471;28;20116;-62
2022/03/31 09:32:13;;;;;;;20.33;16.52;;;15.90;63.20;;;;;;5050239;28;20031;-63
2022/03/31 09:34:41;;;;;;;22.30;17.20;;;16.00;63.10;;;;;;5049496;28;20039;-62
2022/03/31 09:37:07;;;;;;;24.02;18.00;;;16.00;63.10;;;;;;5059598;28;20037;-62
2022/03/31 09:39:33;;;;;;;23.35;17.70;;;16.10;62.90;;;;;;5052819;28;20045;-62
2022/03/31 09:41:59;;;;;;;23.45;17.35;;;16.10;62.50;;;;;;5037275;28;20064;-61
2022/03/31 09:44:25;;;;;;;22.98;17.75;;;16.20;62.60;;;;;;5046491;28;20032;-61
2022/03/31 09:46:55;;;;;;;25.73;17.02;;;16.20;62.30;;;;;;5044289;28;20155;-61
2022/03/31 09:49:27;;;;;;;19.70;16.48;;;16.30;61.90;;;;;;5044675;28;20032;-61
2022/03/31 09:51:58;;;;;;;21.77;17.17;;;16.40;61.60;;;;;;5053326;28;20425;-60
2022/03/31 09:54:27;;;;;;;23.48;17.65;;;16.40;61.30;;;;;;5058501;28;21343;-61
2022/03/31 09:56:56;;;;;;;20.65;16.77;;;16.40;61.30;;;;;;5052985;28;20048;-60
2022/03/31 09:59:28;;;;;;;19.85;16.27;;;16.50;61.20;;;;;;5048591;28;20772;-61
2022/03/31 10:01:54;;;;;;;19.75;16.13;;;16.50;61.20;;;;;;5046684;28;20656;-61
2022/03/31 10:04:21;;;;;;;20.83;16.33;;;16.60;60.90;;;;;;5051353;28;20033;-61
2022/03/31 10:06:47;;;;;;;25.00;16.95;;;16.60;60.70;;;;;;5050980;28;20055;-61
2022/03/31 10:09:13;;;;;;;18.20;15.65;;;16.70;60.50;;;;;;5038589;28;20350;-61
2022/03/31 10:11:47;;;;;;;22.45;16.70;;;16.70;60.50;;;;;;5046982;28;20596;-62
2022/03/31 10:14:25;;;;;;;26.10;17.50;;;16.80;60.30;;;;;;5047428;28;20382;-61
2022/03/31 10:16:57;;;;;;;23.02;16.35;;;16.90;60.40;;;;;;5048464;28;20079;-61
2022/03/31 10:19:28;;;;;;;22.50;16.25;;;16.90;60.00;;;;;;5049740;28;20061;-61
2022/03/31 10:22:03;;;;;;;21.70;16.52;;;17.00;59.80;;;;;;5054430;28;20305;-60
2022/03/31 10:24:44;;;;;;;21.50;16.05;;;17.10;59.70;;;;;;5048691;28;20028;-60
2022/03/31 10:27:32;;;;;;;19.25;15.85;;;17.10;59.40;;;;;;5049610;28;20063;-61
2022/03/31 10:30:25;;;;;;;21.42;15.60;;;17.30;59.10;;;;;;5047024;28;20089;-61
2022/03/31 10:33:01;;;;;;;21.02;15.70;;;17.40;58.90;;;;;;5050060;28;20557;-61
2022/03/31 10:35:35;;;;;;;22.00;16.55;;;17.50;58.30;;;;;;5046010;28;20489;-61
2022/03/31 10:38:17;;;;;;;25.00;16.20;;;17.50;57.90;;;;;;5045537;28;20045;-62
2022/03/31 10:40:49;;;;;;;24.00;15.93;;;17.60;57.70;;;;;;5053208;28;20127;-61
2022/03/31 10:43:29;;;;;;;22.60;16.17;;;17.70;57.50;;;;;;5058261;28;20733;-61
2022/03/31 10:45:58;;;;;;;24.17;16.10;;;17.70;57.10;;;;;;5046323;28;20078;-61
2022/03/31 10:48:26;;;;;;;19.17;16.38;;;17.80;57.10;;;;;;5050184;28;20055;-61
2022/03/31 10:51:14;;;;;;;21.65;15.93;;;17.90;56.90;;;;;;5053211;28;20025;-61
2022/03/31 10:53:48;;;;;;;20.05;15.95;;;18.00;56.70;;;;;;5046579;28;20040;-61
2022/03/31 10:56:26;;;;;;;20.60;16.17;;;18.10;56.10;;;;;;5042235;28;20737;-61
2022/03/31 10:59:01;;;;;;;21.00;15.68;;;18.20;56.00;;;;;;5047542;28;20025;-62
2022/03/31 11:01:34;;;;;;;23.17;15.40;;;18.30;55.80;;;;;;5031461;28;20032;-62
2022/03/31 11:04:11;;;;;;;22.67;16.33;;;18.30;55.40;;;;;;5042843;28;20041;-62
2022/03/31 11:06:46;;;;;;;18.63;14.85;;;18.30;55.10;;;;;;5050410;28;20147;-62
2022/03/31 11:09:32;;;;;;;27.48;20.52;;;18.40;54.90;;;;;;5048374;28;20036;-62
2022/03/31 11:11:59;;;;;;;18.85;15.55;;;18.40;55.50;;;;;;5056815;28;20520;-61
2022/03/31 11:14:26;;;;;;;23.00;17.15;;;18.30;54.80;;;;;;5051831;28;20063;-62
2022/03/31 11:16:53;;;;;;;20.30;16.73;;;18.30;54.70;;;;;;5049062;28;20669;-61
2022/03/31 11:19:21;;;;;;;23.40;16.10;;;18.30;54.70;;;;;;5051089;28;20134;-62
2022/03/31 11:21:48;;;;;;;19.17;15.75;;;18.30;54.50;;;;;;5050547;28;20036;-62
2022/03/31 11:24:14;;;;;;;17.92;16.08;;;18.30;54.40;;;;;;5056644;28;20028;-62
2022/03/31 11:26:44;;;;;;;19.23;15.25;;;18.20;54.30;;;;;;5046921;28;20059;-62
2022/03/31 11:29:22;;;;;;;22.15;15.80;;;18.20;54.10;;;;;;5053487;28;20119;-61
2022/03/31 11:31:50;;;;;;;21.17;16.73;;;18.20;54.10;;;;;;5052401;28;20113;-62
2022/03/31 11:34:27;;;;;;;20.00;15.57;;;18.20;54.10;;;;;;5051509;28;20032;-61
2022/03/31 11:36:55;;;;;;;18.92;16.27;;;18.20;54.00;;;;;;5054216;28;20060;-62
2022/03/31 11:39:29;;;;;;;18.85;16.08;;;18.20;54.00;;;;;;5054653;28;20140;-61
2022/03/31 11:42:00;;;;;;;21.42;16.85;;;18.20;54.00;;;;;;5059780;28;20077;-61
2022/03/31 11:44:29;;;;;;;;;;;18.20;54.10;;;;;;5055785;28;20155;-62
2022/03/31 11:46:56;;;;;;;19.55;15.40;;;18.10;54.60;;;;;;5051649;28;20031;-62
2022/03/31 11:49:27;;;;;;;21.33;15.38;;;18.20;54.50;;;;;;5049430;28;20036;-61
2022/03/31 11:51:59;;;;;;;21.20;16.33;;;18.20;54.00;;;;;;5055797;28;20033;-62
2022/03/31 11:54:28;;;;;;;17.90;15.60;;;18.20;53.80;;;;;;5050189;28;20099;-62
2022/03/31 11:57:06;;;;;;;22.65;16.23;;;18.30;53.90;;;;;;5045171;28;20066;-62
2022/03/31 11:59:34;;;;;;;18.40;15.50;;;18.30;53.90;;;;;;5054293;28;20028;-64
2022/03/31 12:02:01;;;;;;;17.55;15.63;;;18.20;54.00;;;;;;5047525;28;20689;-62
2022/03/31 12:04:30;;;;;;;17.55;15.70;;;18.20;54.30;;;;;;5042837;28;20086;-62
2022/03/31 12:06:57;;;;;;;20.50;16.95;;;18.10;54.50;;;;;;5050093;28;20082;-63
2022/03/31 12:09:28;;;;;;;18.35;15.20;;;18.00;54.70;;;;;;5061128;28;20113;-62
2022/03/31 12:11:56;;;;;;;21.88;16.20;;;17.90;54.90;;;;;;5053519;28;20033;-62
2022/03/31 12:14:24;;;;;;;22.70;16.17;;;17.80;55.10;;;;;;5052564;28;20611;-62
2022/03/31 12:16:55;;;;;;;18.77;14.98;;;17.70;55.40;;;;;;5050432;28;20166;-61
2022/03/31 12:19:22;;;;;;;28.55;15.82;;;17.60;55.40;;;;;;5055021;28;20489;-61
2022/03/31 12:21:54;;;;;;;20.42;15.98;;;17.50;55.60;;;;;;5054987;28;20017;-62
2022/03/31 12:24:21;;;;;;;21.52;16.80;;;17.40;56.10;;;;;;5048683;28;20079;-61
2022/03/31 12:27:00;;;;;;;22.80;15.55;;;17.30;56.10;;;;;;5042635;28;20037;-61
2022/03/31 12:29:32;;;;;;;19.30;13.68;;;17.10;56.50;;;;;;5048208;28;20032;-61
2022/03/31 12:32:11;;;;;;;22.75;16.65;;;17.10;56.90;;;;;;5050834;28;20059;-62
2022/03/31 12:34:59;;;;;;;20.92;16.00;;;16.90;57.00;;;;;;5051061;28;20029;-63
2022/03/31 12:37:35;;;;;;;19.65;15.02;;;16.90;57.30;;;;;;5047211;28;20048;-63